sensor_id;sensor_type;location;lat;lon;timestamp;P1;durP1;ratioP1;P2;durP2;ratioP2
45314;SDS011;31051;51.540;5.852;2023-09-18T00:05:58;11.6;;;10.5;;
45314;SDS011;31051;51.540;5.852;2023-09-18T00:18:48;11.8;;;10.6;;
45314;SDS011;31051;51.540;5.852;2023-09-18T00:31:46;11.3;;;10.2;;
45314;SDS011;31051;51.540;5.852;2023-09-18T00:44:35;10.9;;;9.8;;
45314;SDS011;31051;51.540;5.852;2023-09-18T00:57:35;10.4;;;9.4;;
45314;SDS011;31051;51.540;5.852;2023-09-18T01:10:33;10.3;;;8.9;;
45314;SDS011;31051;51.540;5.852;2023-09-18T01:23:22;9.4;;;8.5;;
45314;SDS011;31051;51.540;5.852;2023-09-18T01:36:10;10.0;;;8.2;;
45314;SDS011;31051;51.540;5.852;2023-09-18T01:48:59;9.2;;;8.0;;
45314;SDS011;31051;51.540;5.852;2023-09-18T02:01:59;10.0;;;7.6;;
45314;SDS011;31051;51.540;5.852;2023-09-18T02:14:58;8.9;;;7.2;;
45314;SDS011;31051;51.540;5.852;2023-09-18T02:27:58;9.0;;;6.8;;
45314;SDS011;31051;51.540;5.852;2023-09-18T02:40:57;11.0;;;6.6;;
45314;SDS011;31051;51.540;5.852;2023-09-18T02:53:57;8.3;;;5.8;;
45314;SDS011;31051;51.540;5.852;2023-09-18T03:06:56;9.6;;;5.5;;
45314;SDS011;31051;51.540;5.852;2023-09-18T03:19:54;9.4;;;7.0;;
45314;SDS011;31051;51.540;5.852;2023-09-18T03:32:43;9.0;;;5.7;;
45314;SDS011;31051;51.540;5.852;2023-09-18T03:45:31;8.1;;;5.5;;
45314;SDS011;31051;51.540;5.852;2023-09-18T03:58:19;8.4;;;5.1;;
45314;SDS011;31051;51.540;5.852;2023-09-18T04:11:08;9.1;;;4.7;;
45314;SDS011;31051;51.540;5.852;2023-09-18T04:23:56;8.2;;;4.6;;
45314;SDS011;31051;51.540;5.852;2023-09-18T04:36:44;7.0;;;4.0;;
45314;SDS011;31051;51.540;5.852;2023-09-18T04:49:33;6.5;;;3.8;;
45314;SDS011;31051;51.540;5.852;2023-09-18T05:02:22;6.2;;;3.7;;
45314;SDS011;31051;51.540;5.852;2023-09-18T05:15:22;5.8;;;3.4;;
45314;SDS011;31051;51.540;5.852;2023-09-18T05:28:21;5.7;;;3.2;;
45314;SDS011;31051;51.540;5.852;2023-09-18T05:41:19;4.8;;;3.0;;
45314;SDS011;31051;51.540;5.852;2023-09-18T05:54:09;6.3;;;3.2;;
45314;SDS011;31051;51.540;5.852;2023-09-18T06:07:07;5.8;;;3.2;;
45314;SDS011;31051;51.540;5.852;2023-09-18T06:19:56;6.1;;;3.6;;
45314;SDS011;31051;51.540;5.852;2023-09-18T06:32:45;5.2;;;2.5;;
45314;SDS011;31051;51.540;5.852;2023-09-18T06:45:44;4.4;;;2.1;;
45314;SDS011;31051;51.540;5.852;2023-09-18T06:58:43;3.4;;;1.8;;
45314;SDS011;31051;51.540;5.852;2023-09-18T07:11:31;3.2;;;1.6;;
45314;SDS011;31051;51.540;5.852;2023-09-18T07:37:09;3.5;;;1.7;;
45314;SDS011;31051;51.540;5.852;2023-09-18T07:50:07;3.4;;;1.7;;
45314;SDS011;31051;51.540;5.852;2023-09-18T08:15:45;3.3;;;1.7;;
45314;SDS011;31051;51.540;5.852;2023-09-18T08:28:44;3.5;;;1.7;;
45314;SDS011;31051;51.540;5.852;2023-09-18T08:41:44;4.1;;;1.8;;
45314;SDS011;31051;51.540;5.852;2023-09-18T08:54:42;3.2;;;1.8;;
45314;SDS011;31051;51.540;5.852;2023-09-18T09:20:31;3.5;;;1.8;;
45314;SDS011;31051;51.540;5.852;2023-09-18T09:33:30;4.0;;;2.2;;
45314;SDS011;31051;51.540;5.852;2023-09-18T09:46:29;4.0;;;2.2;;
45314;SDS011;31051;51.540;5.852;2023-09-18T09:59:18;4.3;;;2.3;;
45314;SDS011;31051;51.540;5.852;2023-09-18T10:12:17;3.6;;;2.0;;
45314;SDS011;31051;51.540;5.852;2023-09-18T10:25:06;3.3;;;2.1;;
45314;SDS011;31051;51.540;5.852;2023-09-18T10:38:05;3.7;;;2.0;;
45314;SDS011;31051;51.540;5.852;2023-09-18T10:50:54;3.9;;;2.1;;
45314;SDS011;31051;51.540;5.852;2023-09-18T11:03:53;4.9;;;2.1;;
45314;SDS011;31051;51.540;5.852;2023-09-18T11:16:41;4.2;;;2.1;;
45314;SDS011;31051;51.540;5.852;2023-09-18T11:29:30;4.3;;;2.3;;
45314;SDS011;31051;51.540;5.852;2023-09-18T11:42:30;4.2;;;2.3;;
45314;SDS011;31051;51.540;5.852;2023-09-18T11:55:28;4.4;;;2.3;;
45314;SDS011;31051;51.540;5.852;2023-09-18T12:08:17;5.0;;;2.2;;
45314;SDS011;31051;51.540;5.852;2023-09-18T12:21:05;3.6;;;2.0;;
45314;SDS011;31051;51.540;5.852;2023-09-18T12:33:53;4.8;;;2.1;;
45314;SDS011;31051;51.540;5.852;2023-09-18T12:46:42;4.2;;;2.1;;
45314;SDS011;31051;51.540;5.852;2023-09-18T12:59:40;4.7;;;2.3;;
45314;SDS011;31051;51.540;5.852;2023-09-18T13:12:28;3.2;;;1.8;;
45314;SDS011;31051;51.540;5.852;2023-09-18T13:25:17;3.8;;;2.0;;
45314;SDS011;31051;51.540;5.852;2023-09-18T13:38:05;2.7;;;1.7;;
45314;SDS011;31051;51.540;5.852;2023-09-18T13:51:04;3.5;;;1.7;;
45314;SDS011;31051;51.540;5.852;2023-09-18T14:04:02;3.0;;;1.8;;
45314;SDS011;31051;51.540;5.852;2023-09-18T14:17:01;3.5;;;1.9;;
45314;SDS011;31051;51.540;5.852;2023-09-18T14:29:59;4.1;;;1.9;;
45314;SDS011;31051;51.540;5.852;2023-09-18T14:42:48;3.1;;;1.8;;
45314;SDS011;31051;51.540;5.852;2023-09-18T14:55:36;3.5;;;1.7;;
45314;SDS011;31051;51.540;5.852;2023-09-18T15:08:24;3.0;;;1.6;;
45314;SDS011;31051;51.540;5.852;2023-09-18T15:21:23;3.4;;;1.6;;
45314;SDS011;31051;51.540;5.852;2023-09-18T15:34:11;2.8;;;1.5;;
45314;SDS011;31051;51.540;5.852;2023-09-18T15:47:00;2.4;;;1.6;;
45314;SDS011;31051;51.540;5.852;2023-09-18T15:59:48;3.0;;;1.6;;
45314;SDS011;31051;51.540;5.852;2023-09-18T16:12:36;3.1;;;1.5;;
45314;SDS011;31051;51.540;5.852;2023-09-18T16:25:25;3.0;;;1.4;;
45314;SDS011;31051;51.540;5.852;2023-09-18T16:38:25;2.3;;;1.4;;
45314;SDS011;31051;51.540;5.852;2023-09-18T16:51:24;2.7;;;1.4;;
45314;SDS011;31051;51.540;5.852;2023-09-18T17:04:24;3.0;;;1.6;;
45314;SDS011;31051;51.540;5.852;2023-09-18T17:17:22;3.4;;;1.8;;
45314;SDS011;31051;51.540;5.852;2023-09-18T17:30:11;2.4;;;1.8;;
45314;SDS011;31051;51.540;5.852;2023-09-18T17:43:11;3.4;;;2.1;;
45314;SDS011;31051;51.540;5.852;2023-09-18T17:56:09;3.5;;;2.2;;
45314;SDS011;31051;51.540;5.852;2023-09-18T18:08:58;4.0;;;2.5;;
45314;SDS011;31051;51.540;5.852;2023-09-18T18:21:58;4.0;;;2.4;;
45314;SDS011;31051;51.540;5.852;2023-09-18T18:34:57;3.8;;;2.2;;
45314;SDS011;31051;51.540;5.852;2023-09-18T18:47:56;4.0;;;2.4;;
45314;SDS011;31051;51.540;5.852;2023-09-18T19:00:45;4.0;;;2.3;;
45314;SDS011;31051;51.540;5.852;2023-09-18T19:13:44;3.4;;;2.0;;
45314;SDS011;31051;51.540;5.852;2023-09-18T19:26:44;4.0;;;2.1;;
45314;SDS011;31051;51.540;5.852;2023-09-18T19:39:42;4.1;;;2.1;;
45314;SDS011;31051;51.540;5.852;2023-09-18T19:52:31;3.9;;;2.0;;
45314;SDS011;31051;51.540;5.852;2023-09-18T20:05:20;4.1;;;2.1;;
45314;SDS011;31051;51.540;5.852;2023-09-18T20:18:19;5.3;;;2.2;;
45314;SDS011;31051;51.540;5.852;2023-09-18T20:31:18;5.2;;;2.2;;
45314;SDS011;31051;51.540;5.852;2023-09-18T20:44:07;5.5;;;2.0;;
45314;SDS011;31051;51.540;5.852;2023-09-18T20:57:06;5.7;;;2.1;;
45314;SDS011;31051;51.540;5.852;2023-09-18T21:10:05;6.3;;;2.4;;
45314;SDS011;31051;51.540;5.852;2023-09-18T21:22:54;6.6;;;2.2;;
45314;SDS011;31051;51.540;5.852;2023-09-18T21:35:53;7.2;;;2.6;;
45314;SDS011;31051;51.540;5.852;2023-09-18T21:48:53;8.7;;;2.7;;
45314;SDS011;31051;51.540;5.852;2023-09-18T22:01:51;8.7;;;2.9;;
45314;SDS011;31051;51.540;5.852;2023-09-18T22:14:40;11.2;;;3.1;;
45314;SDS011;31051;51.540;5.852;2023-09-18T22:27:40;10.4;;;3.2;;
45314;SDS011;31051;51.540;5.852;2023-09-18T22:40:38;12.1;;;3.4;;
45314;SDS011;31051;51.540;5.852;2023-09-18T23:06:27;11.1;;;3.2;;
45314;SDS011;31051;51.540;5.852;2023-09-18T23:19:26;12.7;;;3.4;;
45314;SDS011;31051;51.540;5.852;2023-09-18T23:32:26;10.4;;;3.2;;
45314;SDS011;31051;51.540;5.852;2023-09-18T23:45:25;12.6;;;3.4;;
45314;SDS011;31051;51.540;5.852;2023-09-18T23:58:24;12.0;;;3.3;;
